Time;durP1;ratioP1;P1;durP2;ratioP2;P2;SDS_P1;SDS_P2;PMS_P1;PMS_P2;Temp;Humidity;BMP_temperature;BMP_pressure;BME280_temperature;BME280_humidity;BME280_pressure;Samples;Min_cycle;Max_cycle;Signal;HPM_P1;HPM_P2
2023/08/13 00:02:08;;;;;;;10.23;7.53;;;20.60;99.90;;;;;;4820058;29;20208;-93
2023/08/13 00:04:34;;;;;;;7.40;6.80;;;20.50;99.90;;;;;;4819358;29;20470;-93
2023/08/13 00:07:00;;;;;;;8.63;7.77;;;20.50;99.90;;;;;;4819671;29;20428;-93
2023/08/13 00:09:26;;;;;;;8.60;7.70;;;20.40;99.90;;;;;;4820785;29;20500;-92
2023/08/13 00:11:53;;;;;;;11.13;7.87;;;20.30;99.90;;;;;;4819238;29;21039;-92
2023/08/13 00:14:19;;;;;;;7.73;7.03;;;20.30;99.90;;;;;;4819536;29;20428;-93
2023/08/13 00:16:45;;;;;;;9.87;8.00;;;20.30;99.90;;;;;;4819660;29;20473;-93
2023/08/13 00:19:10;;;;;;;9.30;7.60;;;20.30;99.90;;;;;;4819595;29;20858;-93
2023/08/13 00:21:36;;;;;;;8.90;8.10;;;20.30;99.90;;;;;;4819805;29;20371;-93
2023/08/13 00:24:02;;;;;;;10.00;7.70;;;20.20;99.90;;;;;;4818935;29;20213;-93
2023/08/13 00:26:28;;;;;;;9.50;7.80;;;20.20;99.90;;;;;;4818957;29;20202;-93
2023/08/13 00:28:53;;;;;;;8.50;7.80;;;20.20;99.90;;;;;;4819563;29;20213;-92
2023/08/13 00:31:19;;;;;;;8.30;7.60;;;20.20;99.90;;;;;;4820577;29;20488;-93
2023/08/13 00:33:47;;;;;;;10.70;7.33;;;20.10;99.90;;;;;;4820544;29;20608;-94
2023/08/13 00:36:12;;;;;;;8.80;8.00;;;20.10;99.90;;;;;;4820242;29;20231;-93
2023/08/13 00:38:39;;;;;;;9.43;7.90;;;20.10;99.90;;;;;;4818890;29;20836;-93
2023/08/13 00:41:05;;;;;;;9.00;8.10;;;20.10;99.90;;;;;;4818962;29;20261;-93
2023/08/13 00:43:31;;;;;;;8.43;7.60;;;20.10;99.90;;;;;;4818831;29;20418;-93
2023/08/13 00:45:58;;;;;;;8.40;7.30;;;20.00;99.90;;;;;;4819099;29;20468;-93
2023/08/13 00:48:23;;;;;;;8.30;7.50;;;20.00;99.90;;;;;;4818403;29;20189;-93
2023/08/13 00:50:50;;;;;;;9.13;8.33;;;20.00;99.90;;;;;;4818446;29;20485;-93
2023/08/13 00:53:16;;;;;;;9.13;8.30;;;19.90;99.90;;;;;;4819231;29;20186;-93
2023/08/13 00:55:43;;;;;;;11.30;9.13;;;19.90;99.90;;;;;;4819004;29;20453;-93
2023/08/13 00:58:09;;;;;;;10.33;8.70;;;19.90;99.90;;;;;;4818262;29;21065;-93
2023/08/13 01:00:34;;;;;;;11.67;7.60;;;19.80;99.90;;;;;;4819917;29;20502;-94
2023/08/13 01:03:00;;;;;;;9.67;8.67;;;19.80;99.90;;;;;;4819817;29;20192;-92
2023/08/13 01:05:45;;;;;;;10.07;9.07;;;19.80;99.90;;;;;;4818453;29;20221;-92
2023/08/13 01:08:15;;;;;;;11.00;9.57;;;19.80;99.90;;;;;;4819037;29;20440;-93
2023/08/13 01:10:48;;;;;;;10.47;8.10;;;19.70;99.90;;;;;;4819999;29;20492;-94
2023/08/13 01:13:19;;;;;;;9.07;8.20;;;19.70;99.90;;;;;;4818907;29;20920;-94
2023/08/13 01:15:46;;;;;;;10.70;9.07;;;19.70;99.90;;;;;;4818550;29;20497;-93
2023/08/13 01:18:13;;;;;;;11.17;8.63;;;19.70;99.90;;;;;;4818639;29;20954;-94
2023/08/13 01:20:41;;;;;;;8.67;7.87;;;19.60;99.90;;;;;;4818643;29;20464;-94
2023/08/13 01:23:07;;;;;;;10.23;8.33;;;19.60;99.90;;;;;;4818931;29;20574;-94
2023/08/13 01:25:34;;;;;;;8.67;7.77;;;19.60;99.90;;;;;;4819998;29;20808;-94
2023/08/13 01:28:05;;;;;;;9.20;8.20;;;19.60;99.90;;;;;;4818024;29;20177;-92
2023/08/13 01:30:44;;;;;;;7.97;7.27;;;19.60;99.90;;;;;;4824748;29;20848;-94
2023/08/13 01:33:20;;;;;;;11.80;10.60;;;19.50;99.90;;;;;;4824170;29;20417;-93
2023/08/13 01:35:47;;;;;;;9.50;7.80;;;19.50;99.90;;;;;;4819962;29;20448;-94
2023/08/13 01:38:13;;;;;;;8.63;7.83;;;19.50;99.90;;;;;;4819445;29;20509;-93
2023/08/13 01:40:39;;;;;;;9.23;8.53;;;19.50;99.90;;;;;;4819212;29;20446;-94
2023/08/13 01:43:05;;;;;;;8.97;8.17;;;19.40;99.90;;;;;;4819698;29;20413;-91
2023/08/13 01:45:31;;;;;;;9.10;7.93;;;19.40;99.90;;;;;;4818242;29;20504;-93
2023/08/13 01:47:56;;;;;;;9.60;8.70;;;19.40;99.90;;;;;;4818795;29;20196;-94
2023/08/13 01:50:22;;;;;;;9.33;8.53;;;19.40;99.90;;;;;;4819277;29;20342;-93
2023/08/13 01:52:48;;;;;;;9.90;8.90;;;19.40;99.90;;;;;;4817949;29;20220;-92
2023/08/13 01:55:14;;;;;;;10.20;8.87;;;19.40;99.90;;;;;;4818801;29;20204;-93
2023/08/13 01:57:40;;;;;;;9.73;8.83;;;19.40;99.90;;;;;;4817776;29;20439;-92
2023/08/13 02:00:07;;;;;;;10.53;9.03;;;19.30;99.90;;;;;;4818969;29;20213;-92
2023/08/13 02:02:34;;;;;;;10.30;8.73;;;19.30;99.90;;;;;;4818872;29;20406;-94
2023/08/13 02:05:00;;;;;;;10.40;9.40;;;19.20;99.90;;;;;;4817880;29;20464;-93
2023/08/13 02:07:26;;;;;;;9.93;9.03;;;19.20;99.90;;;;;;4819118;29;20780;-92
2023/08/13 02:09:52;;;;;;;9.40;8.60;;;19.20;99.90;;;;;;4820332;29;20238;-93
2023/08/13 02:12:17;;;;;;;9.90;8.83;;;19.20;99.90;;;;;;4821201;29;20356;-92
2023/08/13 02:14:43;;;;;;;9.40;8.60;;;19.10;99.90;;;;;;4822101;29;20444;-94
2023/08/13 02:17:14;;;;;;;9.57;8.67;;;19.10;99.90;;;;;;4822189;29;20229;-94
2023/08/13 02:19:40;;;;;;;10.07;9.17;;;19.00;99.90;;;;;;4822525;29;20536;-94
2023/08/13 02:22:07;;;;;;;8.43;7.63;;;19.00;99.90;;;;;;4821145;29;20603;-93
2023/08/13 02:24:32;;;;;;;9.40;8.60;;;19.00;99.90;;;;;;4825554;29;20519;-93
2023/08/13 02:26:58;;;;;;;10.90;9.80;;;18.90;99.90;;;;;;4825332;29;20426;-92
2023/08/13 02:29:24;;;;;;;10.50;9.13;;;18.90;99.90;;;;;;4822035;29;20222;-94
2023/08/13 02:31:50;;;;;;;11.00;9.10;;;18.80;99.90;;;;;;4822187;29;20767;-93
2023/08/13 02:34:16;;;;;;;10.03;9.27;;;18.80;99.90;;;;;;4820504;29;20252;-94
2023/08/13 02:36:41;;;;;;;11.80;9.47;;;18.80;99.90;;;;;;4820707;29;20236;-92
2023/08/13 02:39:07;;;;;;;11.10;8.27;;;18.80;99.90;;;;;;4821866;29;20587;-94
2023/08/13 02:41:33;;;;;;;10.30;9.40;;;18.80;99.90;;;;;;4821781;29;20203;-94
2023/08/13 02:43:59;;;;;;;9.90;8.90;;;18.80;99.90;;;;;;4820615;29;20491;-93
2023/08/13 02:46:26;;;;;;;10.30;9.40;;;18.80;99.90;;;;;;4822206;29;20203;-94
2023/08/13 02:48:54;;;;;;;11.93;9.30;;;18.70;99.90;;;;;;4820719;29;20481;-95
2023/08/13 02:51:20;;;;;;;11.67;8.60;;;18.70;99.90;;;;;;4820554;29;20577;-93
2023/08/13 02:53:46;;;;;;;10.30;9.30;;;18.70;99.90;;;;;;4821165;29;20415;-94
2023/08/13 02:56:12;;;;;;;10.80;9.53;;;18.60;99.90;;;;;;4821386;29;20948;-93
2023/08/13 02:58:38;;;;;;;10.40;9.50;;;18.60;99.90;;;;;;4820290;29;20426;-94
2023/08/13 03:01:04;;;;;;;10.77;9.73;;;18.60;99.90;;;;;;4821151;29;20211;-93
2023/08/13 03:03:30;;;;;;;14.33;10.27;;;18.60;99.90;;;;;;4820491;29;20463;-93
2023/08/13 03:05:56;;;;;;;11.17;10.07;;;18.50;99.90;;;;;;4820195;29;20293;-93
2023/08/13 03:08:22;;;;;;;10.70;9.37;;;18.50;99.90;;;;;;4821550;29;20407;-93
2023/08/13 03:10:47;;;;;;;10.93;9.73;;;18.50;99.90;;;;;;4821334;29;20504;-93
2023/08/13 03:13:13;;;;;;;12.40;11.10;;;18.40;99.90;;;;;;4820974;29;20183;-94
2023/08/13 03:15:39;;;;;;;11.93;10.73;;;18.40;99.90;;;;;;4821630;29;20256;-93
2023/08/13 03:18:05;;;;;;;11.00;9.83;;;18.40;99.90;;;;;;4821521;29;20357;-94
2023/08/13 03:20:31;;;;;;;10.97;9.90;;;18.30;99.90;;;;;;4820011;29;20470;-92
2023/08/13 03:22:56;;;;;;;12.57;11.47;;;18.30;99.90;;;;;;4820705;29;20473;-92
2023/08/13 03:25:22;;;;;;;13.83;10.50;;;18.30;99.90;;;;;;4820383;29;20226;-94
2023/08/13 03:27:48;;;;;;;11.47;10.37;;;18.30;99.90;;;;;;4821368;29;20171;-94
2023/08/13 03:30:15;;;;;;;12.80;11.60;;;18.30;99.90;;;;;;4821550;29;20625;-93
2023/08/13 03:32:40;;;;;;;12.00;10.77;;;18.30;99.90;;;;;;4820124;29;20925;-92
2023/08/13 03:35:06;;;;;;;10.90;9.90;;;18.30;99.90;;;;;;4821521;29;20465;-94
2023/08/13 03:37:32;;;;;;;10.30;9.20;;;18.20;99.90;;;;;;4819699;29;20419;-94
2023/08/13 03:39:58;;;;;;;11.27;9.50;;;18.20;99.90;;;;;;4819867;29;21003;-93
2023/08/13 03:42:24;;;;;;;12.27;11.00;;;18.20;99.90;;;;;;4820615;29;20180;-94
2023/08/13 03:44:49;;;;;;;11.27;10.17;;;18.20;99.90;;;;;;4821216;29;20222;-94
2023/08/13 03:47:15;;;;;;;11.17;10.17;;;18.20;99.90;;;;;;4819711;29;20221;-94
2023/08/13 03:49:41;;;;;;;11.40;10.20;;;18.20;99.90;;;;;;4819592;29;20576;-94
2023/08/13 03:52:09;;;;;;;11.80;10.60;;;18.20;99.90;;;;;;4819582;29;20598;-93
2023/08/13 03:54:35;;;;;;;10.00;9.07;;;18.20;99.90;;;;;;4820225;29;20206;-93
2023/08/13 03:57:01;;;;;;;11.17;10.03;;;18.30;99.90;;;;;;4820704;29;20495;-94
2023/08/13 03:59:27;;;;;;;11.60;10.10;;;18.30;99.90;;;;;;4819442;29;20203;-93
2023/08/13 04:01:53;;;;;;;9.97;8.97;;;18.30;99.90;;;;;;4819863;29;20787;-94
2023/08/13 04:04:18;;;;;;;10.73;9.00;;;18.30;99.90;;;;;;4819168;29;20198;-93
2023/08/13 04:06:45;;;;;;;12.83;10.13;;;18.30;99.90;;;;;;4819509;29;20214;-94
2023/08/13 04:09:11;;;;;;;13.33;10.13;;;18.30;99.90;;;;;;4819180;29;20256;-95
2023/08/13 04:11:36;;;;;;;11.10;10.10;;;18.30;99.90;;;;;;4821069;29;20416;-94
2023/08/13 04:14:02;;;;;;;11.73;10.30;;;18.30;99.90;;;;;;4819330;29;20183;-94
2023/08/13 04:16:28;;;;;;;14.27;11.73;;;18.30;99.90;;;;;;4820049;29;20581;-94
2023/08/13 04:18:54;;;;;;;11.93;10.77;;;18.40;99.90;;;;;;4819474;29;20550;-93
2023/08/13 04:21:19;;;;;;;11.33;10.20;;;18.30;99.90;;;;;;4819668;29;20208;-94
2023/08/13 04:23:45;;;;;;;12.70;9.70;;;18.30;99.90;;;;;;4818963;29;20188;-94
2023/08/13 04:26:11;;;;;;;11.97;10.70;;;18.30;99.90;;;;;;4819893;29;20216;-94
2023/08/13 04:28:36;;;;;;;12.70;11.50;;;18.30;99.90;;;;;;4818913;29;20725;-93
2023/08/13 04:31:02;;;;;;;10.50;9.60;;;18.30;99.90;;;;;;4822252;29;20254;-94
2023/08/13 04:33:28;;;;;;;11.17;10.17;;;18.30;99.90;;;;;;4819035;29;20213;-94
2023/08/13 04:35:54;;;;;;;11.17;9.93;;;18.40;99.90;;;;;;4818840;29;20235;-93
2023/08/13 04:38:21;;;;;;;11.60;10.50;;;18.50;99.90;;;;;;4820009;29;20262;-93
2023/08/13 04:40:50;;;;;;;11.00;10.00;;;18.50;99.90;;;;;;4818840;29;20473;-93
2023/08/13 04:43:16;;;;;;;11.33;9.80;;;18.50;99.90;;;;;;4818954;29;20426;-93
2023/08/13 04:45:48;;;;;;;10.23;9.30;;;18.50;99.90;;;;;;4818929;29;20539;-93
2023/08/13 04:48:37;;;;;;;11.30;10.40;;;18.60;99.90;;;;;;4819035;29;20681;-95
2023/08/13 04:51:03;;;;;;;11.50;10.40;;;18.70;99.90;;;;;;4820503;29;20499;-94
2023/08/13 04:53:29;;;;;;;11.27;10.17;;;18.70;99.90;;;;;;4819423;29;20404;-93
2023/08/13 04:55:55;;;;;;;10.63;9.67;;;18.80;99.90;;;;;;4818816;29;20992;-95
2023/08/13 04:58:21;;;;;;;13.57;10.90;;;18.80;99.90;;;;;;4818505;29;20197;-93
2023/08/13 05:00:46;;;;;;;12.87;11.50;;;18.90;99.90;;;;;;4819700;29;20219;-95
2023/08/13 05:03:12;;;;;;;12.93;10.80;;;19.00;99.90;;;;;;4818795;29;20284;-93
2023/08/13 05:05:38;;;;;;;11.70;10.50;;;19.10;99.90;;;;;;4820136;29;20527;-93
2023/08/13 05:08:04;;;;;;;13.20;10.60;;;19.10;99.90;;;;;;4818268;29;20188;-94
2023/08/13 05:10:29;;;;;;;12.20;11.10;;;19.20;99.90;;;;;;4818436;29;20240;-94
2023/08/13 05:12:55;;;;;;;11.70;10.47;;;19.30;99.90;;;;;;4818512;29;21032;-94
2023/08/13 05:15:21;;;;;;;12.73;11.00;;;19.40;99.90;;;;;;4823438;29;20212;-93
2023/08/13 05:17:46;;;;;;;13.73;12.10;;;19.50;99.90;;;;;;4826812;29;20750;-95
2023/08/13 05:20:12;;;;;;;12.03;10.93;;;19.60;99.90;;;;;;4827746;29;20208;-94
2023/08/13 05:22:38;;;;;;;11.90;10.70;;;19.70;99.90;;;;;;4826163;29;20648;-94
2023/08/13 05:25:04;;;;;;;14.30;11.20;;;19.80;99.90;;;;;;4818512;29;20308;-94
2023/08/13 05:27:30;;;;;;;11.60;10.60;;;19.90;99.90;;;;;;4818041;29;20200;-95
2023/08/13 05:29:55;;;;;;;11.87;10.80;;;20.00;99.90;;;;;;4818389;29;20499;-95
2023/08/13 05:32:22;;;;;;;12.17;10.93;;;20.10;99.90;;;;;;4817852;29;20188;-94
2023/08/13 05:34:48;;;;;;;16.13;12.00;;;20.10;99.90;;;;;;4819521;29;20604;-93
2023/08/13 05:37:14;;;;;;;15.70;10.90;;;20.20;99.90;;;;;;4818328;29;20510;-94
2023/08/13 05:39:39;;;;;;;14.83;13.33;;;20.40;99.90;;;;;;4818548;29;20972;-93
2023/08/13 05:42:05;;;;;;;12.23;11.23;;;20.50;99.90;;;;;;4818228;29;20312;-91
2023/08/13 05:44:31;;;;;;;13.07;11.03;;;20.60;99.90;;;;;;4821699;29;20220;-93
2023/08/13 05:46:57;;;;;;;11.47;10.40;;;20.70;99.90;;;;;;4821581;29;20507;-93
2023/08/13 05:49:23;;;;;;;12.90;11.50;;;20.80;99.90;;;;;;4820948;29;20229;-94
2023/08/13 05:51:48;;;;;;;12.27;11.17;;;20.90;99.90;;;;;;4821626;29;20427;-93
2023/08/13 05:54:15;;;;;;;11.87;10.67;;;21.00;99.90;;;;;;4823186;29;20420;-94
2023/08/13 05:56:41;;;;;;;12.50;11.30;;;21.10;99.90;;;;;;4820981;29;20231;-94
2023/08/13 05:59:07;;;;;;;9.97;8.97;;;21.30;99.90;;;;;;4822536;29;20413;-94
2023/08/13 06:01:33;;;;;;;10.30;9.30;;;21.40;99.90;;;;;;4823543;29;20431;-93
2023/08/13 06:03:59;;;;;;;10.83;9.70;;;21.40;99.90;;;;;;4821214;29;21046;-94
2023/08/13 06:06:25;;;;;;;8.90;8.20;;;21.60;99.90;;;;;;4822845;29;20528;-93
2023/08/13 06:08:50;;;;;;;8.97;8.17;;;21.60;99.90;;;;;;4822013;29;20711;-94
2023/08/13 06:11:16;;;;;;;8.90;8.10;;;21.70;99.90;;;;;;4822730;29;20995;-94
2023/08/13 06:13:42;;;;;;;10.17;8.23;;;21.80;99.90;;;;;;4820484;29;20420;-94
2023/08/13 06:16:08;;;;;;;8.90;8.10;;;21.90;99.90;;;;;;4822906;29;20233;-94
2023/08/13 06:18:37;;;;;;;9.30;8.50;;;22.10;99.90;;;;;;4829912;29;20281;-94
2023/08/13 06:21:05;;;;;;;9.40;8.50;;;22.20;99.90;;;;;;4828121;29;20686;-93
2023/08/13 06:23:31;;;;;;;11.07;10.07;;;22.30;99.90;;;;;;4839227;29;20511;-94
2023/08/13 06:25:57;;;;;;;9.60;8.70;;;22.30;99.90;;;;;;4838077;29;20998;-94
2023/08/13 06:28:22;;;;;;;10.33;8.20;;;22.50;99.90;;;;;;4838264;29;20419;-94
2023/08/13 06:30:49;;;;;;;7.90;7.10;;;22.50;99.90;;;;;;4837649;29;20271;-93
2023/08/13 06:33:14;;;;;;;8.63;7.60;;;22.60;99.90;;;;;;4838020;29;20183;-94
2023/08/13 06:35:44;;;;;;;8.37;7.67;;;22.70;99.90;;;;;;4839411;29;20510;-93
2023/08/13 06:38:10;;;;;;;7.63;7.00;;;22.80;99.90;;;;;;4838916;29;20768;-94
2023/08/13 06:40:35;;;;;;;7.97;7.17;;;22.90;99.90;;;;;;4837914;29;20470;-94
2023/08/13 06:43:01;;;;;;;8.70;7.20;;;23.00;99.90;;;;;;4838720;29;20336;-94
2023/08/13 06:45:27;;;;;;;9.43;7.13;;;23.10;99.90;;;;;;4837943;29;20219;-93
2023/08/13 06:48:00;;;;;;;6.80;6.20;;;23.20;99.90;;;;;;4838124;29;20282;-95
2023/08/13 06:50:26;;;;;;;6.93;6.20;;;23.40;99.90;;;;;;4839174;29;21065;-94
2023/08/13 06:52:53;;;;;;;8.07;5.93;;;23.50;99.90;;;;;;4838928;29;20940;-95
2023/08/13 06:55:19;;;;;;;11.53;6.33;;;23.60;99.90;;;;;;4838296;29;20970;-94
2023/08/13 06:57:46;;;;;;;6.20;5.60;;;23.70;99.90;;;;;;4838040;29;20425;-94
2023/08/13 07:00:13;;;;;;;10.77;5.63;;;23.80;99.90;;;;;;4838459;29;20481;-93
2023/08/13 07:02:39;;;;;;;6.80;5.53;;;23.90;99.90;;;;;;4838637;29;20431;-94
2023/08/13 07:05:05;;;;;;;7.90;7.20;;;24.00;99.90;;;;;;4840431;29;20872;-92
2023/08/13 07:07:33;;;;;;;6.43;4.93;;;24.00;99.90;;;;;;4838759;29;20427;-94
2023/08/13 07:09:59;;;;;;;10.27;5.80;;;24.20;99.90;;;;;;4839989;29;20562;-94
2023/08/13 07:12:25;;;;;;;7.10;5.50;;;24.30;99.90;;;;;;4837837;29;20439;-94
2023/08/13 07:14:51;;;;;;;10.70;5.83;;;24.40;99.90;;;;;;4837878;29;20858;-94
2023/08/13 07:17:16;;;;;;;5.40;4.90;;;24.50;99.90;;;;;;4844666;29;20242;-94
2023/08/13 07:19:42;;;;;;;5.50;5.00;;;24.60;99.90;;;;;;4847743;29;20243;-94
2023/08/13 07:22:08;;;;;;;6.00;5.50;;;24.70;99.90;;;;;;4841387;29;20192;-93
2023/08/13 07:24:34;;;;;;;7.70;5.17;;;24.80;99.90;;;;;;4838421;29;20215;-94
2023/08/13 07:27:00;;;;;;;6.23;5.63;;;24.90;99.90;;;;;;4839182;29;20169;-92
2023/08/13 07:29:26;;;;;;;5.97;5.37;;;25.00;99.90;;;;;;4839630;29;20938;-94
2023/08/13 07:31:52;;;;;;;8.60;4.90;;;25.20;99.90;;;;;;4839662;29;20624;-94
2023/08/13 07:34:18;;;;;;;6.10;4.77;;;25.20;99.90;;;;;;4837235;29;20221;-94
2023/08/13 07:36:44;;;;;;;6.53;5.27;;;25.30;99.90;;;;;;4836771;29;20686;-93
2023/08/13 07:39:10;;;;;;;5.67;4.97;;;25.40;99.90;;;;;;4836901;29;20185;-94
2023/08/13 07:41:36;;;;;;;5.40;4.30;;;25.50;99.90;;;;;;4837912;29;20197;-95
2023/08/13 07:44:02;;;;;;;6.77;4.77;;;25.60;99.90;;;;;;4836941;29;20425;-93
2023/08/13 07:46:28;;;;;;;5.20;4.73;;;25.70;99.50;;;;;;4836887;29;20445;-94
2023/08/13 07:48:53;;;;;;;8.60;5.20;;;25.80;98.80;;;;;;4836521;29;21019;-94
2023/08/13 07:51:20;;;;;;;6.47;5.40;;;25.90;98.30;;;;;;4838133;29;20419;-94
2023/08/13 07:53:47;;;;;;;4.80;4.40;;;26.00;99.20;;;;;;4838121;29;20559;-94
2023/08/13 07:56:12;;;;;;;7.03;4.60;;;26.10;98.40;;;;;;4837910;29;20456;-94
2023/08/13 07:58:38;;;;;;;5.33;4.50;;;26.20;98.40;;;;;;4837959;29;20472;-94
2023/08/13 08:01:04;;;;;;;4.43;4.07;;;26.40;98.50;;;;;;4837891;29;20241;-95
2023/08/13 08:03:30;;;;;;;5.13;4.63;;;26.40;98.50;;;;;;4837566;29;20271;-92
2023/08/13 08:05:55;;;;;;;5.00;4.50;;;26.50;98.80;;;;;;4838558;29;20212;-94
2023/08/13 08:08:21;;;;;;;6.07;4.60;;;26.60;98.40;;;;;;4837950;29;20185;-94
2023/08/13 08:10:47;;;;;;;6.73;4.40;;;26.70;98.60;;;;;;4837685;29;20679;-94
2023/08/13 08:13:13;;;;;;;4.40;4.00;;;26.80;98.60;;;;;;4837521;29;20643;-95
2023/08/13 08:15:38;;;;;;;8.03;5.10;;;26.90;97.80;;;;;;4840426;29;20257;-94
2023/08/13 08:18:04;;;;;;;4.67;4.23;;;27.00;97.40;;;;;;4847552;29;20181;-95
2023/08/13 08:20:30;;;;;;;6.00;3.90;;;27.10;96.80;;;;;;4846938;29;20390;-95
2023/08/13 08:22:56;;;;;;;4.47;4.00;;;27.20;97.30;;;;;;4838489;29;21137;-93
2023/08/13 08:25:22;;;;;;;4.77;3.87;;;27.20;95.70;;;;;;4837222;29;20210;-93
2023/08/13 08:27:48;;;;;;;4.90;3.67;;;27.30;95.40;;;;;;4837298;29;20182;-95
2023/08/13 08:30:13;;;;;;;6.93;3.60;;;27.40;96.50;;;;;;4837425;29;20245;-94
2023/08/13 08:32:39;;;;;;;4.23;3.93;;;27.50;94.80;;;;;;4836923;29;20210;-95
2023/08/13 08:35:05;;;;;;;4.47;4.07;;;27.60;94.00;;;;;;4837331;29;20211;-94
2023/08/13 08:37:32;;;;;;;4.67;4.13;;;27.60;94.30;;;;;;4838171;29;20708;-95
2023/08/13 08:39:59;;;;;;;4.47;4.00;;;27.70;94.50;;;;;;4838055;29;20448;-95
2023/08/13 08:42:26;;;;;;;4.10;3.77;;;27.80;94.70;;;;;;4838562;29;20555;-94
2023/08/13 08:44:52;;;;;;;4.70;4.30;;;27.90;94.60;;;;;;4836866;29;20814;-94
2023/08/13 08:47:20;;;;;;;4.37;4.07;;;28.00;94.10;;;;;;4838444;29;20507;-93
2023/08/13 08:49:48;;;;;;;4.23;3.83;;;28.10;93.90;;;;;;4836596;29;20503;-95
2023/08/13 08:52:16;;;;;;;5.10;4.30;;;28.10;94.00;;;;;;4836935;29;20976;-94
2023/08/13 08:54:43;;;;;;;4.13;3.67;;;28.20;94.50;;;;;;4836667;29;21073;-94
2023/08/13 08:57:09;;;;;;;4.60;4.20;;;28.20;95.30;;;;;;4836879;29;20443;-95
2023/08/13 08:59:35;;;;;;;5.40;3.70;;;28.20;95.20;;;;;;4837033;29;20443;-95
2023/08/13 09:02:02;;;;;;;4.73;4.33;;;28.20;95.30;;;;;;4836290;29;20654;-94
2023/08/13 09:04:28;;;;;;;4.93;3.70;;;28.30;94.20;;;;;;4836876;29;20439;-94
2023/08/13 09:07:03;;;;;;;4.17;3.80;;;28.40;94.90;;;;;;4843921;29;20412;-94
2023/08/13 09:09:29;;;;;;;4.27;3.87;;;28.50;94.00;;;;;;4841425;29;21178;-94
2023/08/13 09:11:56;;;;;;;4.83;3.63;;;28.60;94.50;;;;;;4836950;29;21000;-94
2023/08/13 09:14:22;;;;;;;4.00;3.70;;;28.60;94.80;;;;;;4836473;29;20476;-94
2023/08/13 09:16:50;;;;;;;3.67;3.47;;;28.70;94.50;;;;;;4837929;29;20494;-95
2023/08/13 09:19:17;;;;;;;4.20;3.90;;;28.90;92.70;;;;;;4837322;29;20407;-93
2023/08/13 09:21:49;;;;;;;3.47;3.27;;;28.80;92.40;;;;;;4836689;29;20450;-95
2023/08/13 09:24:15;;;;;;;4.60;3.60;;;29.00;91.60;;;;;;4837402;29;20408;-94
2023/08/13 09:26:41;;;;;;;4.40;4.00;;;29.00;92.40;;;;;;4837737;29;20415;-94
2023/08/13 09:29:07;;;;;;;8.50;4.30;;;29.10;90.50;;;;;;4836490;29;20526;-94
2023/08/13 09:31:34;;;;;;;4.33;3.83;;;29.20;90.80;;;;;;4836934;29;20832;-94
2023/08/13 09:34:00;;;;;;;3.80;3.50;;;29.10;92.10;;;;;;4837510;29;20639;-93
2023/08/13 09:36:30;;;;;;;4.63;3.60;;;29.20;92.30;;;;;;4836935;29;20453;-94
2023/08/13 09:38:56;;;;;;;3.63;3.43;;;29.20;90.50;;;;;;4836424;29;20428;-94
2023/08/13 09:41:24;;;;;;;4.53;4.10;;;29.30;90.10;;;;;;4836789;29;20464;-93
2023/08/13 09:43:54;;;;;;;3.53;3.23;;;29.30;90.20;;;;;;4836332;29;20476;-95
2023/08/13 09:46:21;;;;;;;5.00;3.43;;;29.40;88.00;;;;;;4838116;29;20822;-94
2023/08/13 09:48:47;;;;;;;5.10;3.70;;;29.30;89.00;;;;;;4836263;29;20789;-95
2023/08/13 09:51:13;;;;;;;4.33;4.03;;;29.40;89.00;;;;;;4837755;29;20494;-93
2023/08/13 09:53:44;;;;;;;3.50;3.30;;;29.40;88.00;;;;;;4836176;29;20431;-94
2023/08/13 09:56:12;;;;;;;4.13;3.23;;;29.40;87.30;;;;;;4837539;29;20456;-93
2023/08/13 09:58:38;;;;;;;5.73;3.93;;;29.40;86.30;;;;;;4836608;29;20416;-94
2023/08/13 10:01:04;;;;;;;4.33;3.80;;;29.40;86.30;;;;;;4835723;29;20454;-94
2023/08/13 10:03:31;;;;;;;5.43;4.03;;;29.40;86.10;;;;;;4836981;29;20730;-93
2023/08/13 10:05:57;;;;;;;4.10;3.60;;;29.40;86.60;;;;;;4837674;29;21005;-95
2023/08/13 10:08:23;;;;;;;3.90;3.60;;;29.40;88.70;;;;;;4843663;29;20415;-94
2023/08/13 10:10:49;;;;;;;4.00;3.70;;;29.40;89.70;;;;;;4842444;29;20497;-94
2023/08/13 10:13:15;;;;;;;4.63;4.23;;;29.50;87.80;;;;;;4836090;29;20426;-94
2023/08/13 10:15:43;;;;;;;4.17;3.87;;;29.60;88.00;;;;;;4835842;29;20246;-94
2023/08/13 10:18:10;;;;;;;4.60;4.20;;;29.60;89.00;;;;;;4836025;29;20183;-95
2023/08/13 10:20:36;;;;;;;4.03;3.63;;;29.60;87.70;;;;;;4836233;29;20457;-95
2023/08/13 10:23:07;;;;;;;4.00;3.60;;;29.70;87.10;;;;;;4835884;29;20438;-94
2023/08/13 10:25:34;;;;;;;3.83;3.53;;;29.80;87.00;;;;;;4836134;29;20214;-93
2023/08/13 10:28:19;;;;;;;6.37;3.93;;;29.80;84.40;;;;;;4835619;29;20426;-94
2023/08/13 10:30:46;;;;;;;4.47;4.07;;;29.80;86.80;;;;;;4838282;29;20551;-94
2023/08/13 10:33:13;;;;;;;4.60;4.20;;;29.80;86.20;;;;;;4839730;29;20438;-94
2023/08/13 10:35:39;;;;;;;3.90;3.60;;;29.80;84.90;;;;;;4839310;29;20454;-94
2023/08/13 10:38:06;;;;;;;4.60;3.83;;;29.80;88.30;;;;;;4838888;29;20461;-94
2023/08/13 10:40:32;;;;;;;3.70;3.40;;;29.80;89.00;;;;;;4840359;29;20791;-94
2023/08/13 10:43:02;;;;;;;3.67;3.40;;;29.80;89.30;;;;;;4839192;29;20765;-95
2023/08/13 10:45:36;;;;;;;4.30;3.83;;;29.80;90.30;;;;;;4839013;29;20470;-95
2023/08/13 10:48:04;;;;;;;3.50;3.20;;;29.70;90.00;;;;;;4839295;29;20907;-94
2023/08/13 10:50:33;;;;;;;3.20;3.00;;;29.60;90.90;;;;;;4840016;29;20605;-94
2023/08/13 10:53:13;;;;;;;3.77;3.50;;;29.70;90.70;;;;;;4838761;29;20421;-94
2023/08/13 10:55:48;;;;;;;4.00;3.60;;;29.70;90.80;;;;;;4839096;29;20627;-93
2023/08/13 10:58:33;;;;;;;3.50;3.20;;;29.70;90.60;;;;;;4838668;29;20433;-95
2023/08/13 11:01:09;;;;;;;3.70;3.40;;;29.90;87.70;;;;;;4839054;29;20458;-95
2023/08/13 11:03:51;;;;;;;3.93;3.63;;;29.90;88.80;;;;;;4838814;29;20526;-95
2023/08/13 11:06:20;;;;;;;5.00;3.80;;;29.90;89.50;;;;;;4838097;29;20455;-94
2023/08/13 11:08:46;;;;;;;3.90;3.60;;;29.80;90.30;;;;;;4839561;29;20503;-94
2023/08/13 11:11:13;;;;;;;4.30;3.17;;;29.80;90.00;;;;;;4838749;29;20510;-94
2023/08/13 11:13:39;;;;;;;4.60;3.43;;;29.90;89.30;;;;;;4838619;29;20933;-95
2023/08/13 11:16:05;;;;;;;6.30;3.50;;;29.90;90.20;;;;;;4837908;29;20550;-95
2023/08/13 11:18:31;;;;;;;4.40;4.00;;;29.80;90.80;;;;;;4838804;29;20183;-93
2023/08/13 11:20:57;;;;;;;4.40;3.13;;;29.90;89.90;;;;;;4838639;29;20998;-94
2023/08/13 11:23:23;;;;;;;4.33;3.87;;;29.90;89.90;;;;;;4839561;29;20180;-94
2023/08/13 11:25:49;;;;;;;4.40;3.33;;;30.00;89.70;;;;;;4839983;29;20893;-94
2023/08/13 11:28:21;;;;;;;4.03;3.40;;;30.10;86.60;;;;;;4843838;29;20181;-95
2023/08/13 11:30:47;;;;;;;6.57;3.57;;;30.20;83.80;;;;;;4845054;29;20563;-95
2023/08/13 11:33:14;;;;;;;3.87;3.57;;;30.20;83.30;;;;;;4849624;29;20432;-93
2023/08/13 11:35:40;;;;;;;3.13;2.93;;;30.20;84.60;;;;;;4840214;29;20976;-94
2023/08/13 11:38:06;;;;;;;3.67;3.47;;;30.30;82.00;;;;;;4844456;29;20931;-94
2023/08/13 11:40:32;;;;;;;4.90;3.40;;;30.30;83.20;;;;;;4838995;29;20868;-94
2023/08/13 11:43:00;;;;;;;3.70;3.40;;;30.30;83.00;;;;;;4838169;29;20484;-94
2023/08/13 11:45:27;;;;;;;5.10;3.47;;;30.30;85.70;;;;;;4839629;29;20513;-94
2023/08/13 11:48:10;;;;;;;3.97;3.60;;;30.30;86.40;;;;;;4843572;29;20417;-94
2023/08/13 11:50:37;;;;;;;3.60;3.07;;;30.40;83.30;;;;;;4838443;29;20492;-95
2023/08/13 11:53:12;;;;;;;5.23;3.00;;;30.40;81.60;;;;;;4837837;29;20561;-93
2023/08/13 11:55:48;;;;;;;4.97;3.20;;;30.40;82.60;;;;;;4839386;29;20455;-94
2023/08/13 11:58:19;;;;;;;3.80;3.50;;;30.30;86.40;;;;;;4837884;29;20953;-95
2023/08/13 12:00:49;;;;;;;4.60;4.30;;;30.40;84.00;;;;;;4837951;29;20461;-93
2023/08/13 12:03:16;;;;;;;4.43;3.10;;;30.40;85.50;;;;;;4838837;29;20412;-93
2023/08/13 12:05:42;;;;;;;6.60;3.10;;;30.30;85.70;;;;;;4837141;29;20466;-94
2023/08/13 12:08:09;;;;;;;4.17;3.50;;;30.30;87.10;;;;;;4837727;29;20750;-94
2023/08/13 12:10:36;;;;;;;3.20;3.00;;;30.40;84.10;;;;;;4837766;29;20496;-95
2023/08/13 12:13:03;;;;;;;3.37;3.07;;;30.40;83.50;;;;;;4837324;29;20444;-94
2023/08/13 12:15:29;;;;;;;5.00;3.67;;;30.50;80.60;;;;;;4836919;29;20460;-94
2023/08/13 12:17:59;;;;;;;3.70;3.40;;;30.50;80.50;;;;;;4838430;29;20409;-94
2023/08/13 12:20:27;;;;;;;5.00;3.00;;;30.60;80.50;;;;;;4837443;29;20546;-94
2023/08/13 12:22:54;;;;;;;3.47;3.27;;;30.60;80.50;;;;;;4837789;29;20425;-94
2023/08/13 12:25:19;;;;;;;4.07;3.77;;;30.70;81.00;;;;;;4837300;29;20467;-94
2023/08/13 12:27:47;;;;;;;3.40;3.10;;;30.70;81.80;;;;;;4837130;29;20421;-93
2023/08/13 12:30:13;;;;;;;3.50;3.20;;;30.60;81.00;;;;;;4841944;29;20253;-95
2023/08/13 12:32:39;;;;;;;3.83;3.47;;;30.70;80.00;;;;;;4845614;29;20632;-95
2023/08/13 12:35:08;;;;;;;4.00;3.70;;;30.80;80.80;;;;;;4840898;29;20460;-93
2023/08/13 12:37:34;;;;;;;3.50;3.20;;;30.70;83.80;;;;;;4837524;29;20192;-95
2023/08/13 12:40:00;;;;;;;3.57;3.27;;;30.50;85.40;;;;;;4838398;29;20459;-95